sensor_id;sensor_type;location;lat;lon;timestamp;pressure;altitude;pressure_sealevel;temperature;humidity
13593;BME280;6867;50.998;4.250;2023-05-10T00:00:53;100679.75;;;16.51;79.82
13593;BME280;6867;50.998;4.250;2023-05-10T00:03:19;100693.47;;;16.61;79.95
13593;BME280;6867;50.998;4.250;2023-05-10T00:05:46;100687.13;;;16.72;80.03
13593;BME280;6867;50.998;4.250;2023-05-10T00:08:14;100674.75;;;16.76;79.39
13593;BME280;6867;50.998;4.250;2023-05-10T00:10:41;100675.69;;;16.70;78.87
13593;BME280;6867;50.998;4.250;2023-05-10T00:13:07;100682.22;;;16.52;79.43
13593;BME280;6867;50.998;4.250;2023-05-10T00:15:34;100686.56;;;16.53;79.68
13593;BME280;6867;50.998;4.250;2023-05-10T00:18:01;100686.47;;;16.65;79.56
13593;BME280;6867;50.998;4.250;2023-05-10T00:20:27;100682.22;;;16.52;79.61
13593;BME280;6867;50.998;4.250;2023-05-10T00:22:54;100681.28;;;16.63;79.43
13593;BME280;6867;50.998;4.250;2023-05-10T00:25:23;100676.44;;;16.65;79.31
13593;BME280;6867;50.998;4.250;2023-05-10T00:27:49;100679.19;;;16.49;79.79
13593;BME280;6867;50.998;4.250;2023-05-10T00:30:16;100672.84;;;16.60;79.31
13593;BME280;6867;50.998;4.250;2023-05-10T00:32:43;100680.78;;;16.66;79.25
13593;BME280;6867;50.998;4.250;2023-05-10T00:35:10;100671.72;;;16.56;78.96
13593;BME280;6867;50.998;4.250;2023-05-10T00:37:36;100676.13;;;16.62;79.00
13593;BME280;6867;50.998;4.250;2023-05-10T00:40:04;100673.56;;;16.72;78.63
13593;BME280;6867;50.998;4.250;2023-05-10T00:42:32;100676.78;;;16.69;78.67
13593;BME280;6867;50.998;4.250;2023-05-10T00:44:59;100686.84;;;16.52;78.98
13593;BME280;6867;50.998;4.250;2023-05-10T00:47:26;100690.56;;;16.67;78.66
13593;BME280;6867;50.998;4.250;2023-05-10T00:49:52;100685.25;;;16.73;78.58
13593;BME280;6867;50.998;4.250;2023-05-10T00:52:19;100684.31;;;16.67;78.42
13593;BME280;6867;50.998;4.250;2023-05-10T00:54:48;100681.41;;;16.52;79.17
13593;BME280;6867;50.998;4.250;2023-05-10T00:57:15;100673.03;;;16.36;79.15
13593;BME280;6867;50.998;4.250;2023-05-10T00:59:43;100690.28;;;16.64;79.34
13593;BME280;6867;50.998;4.250;2023-05-10T01:02:10;100670.69;;;16.62;79.09
13593;BME280;6867;50.998;4.250;2023-05-10T01:04:38;100672.47;;;16.51;79.05
13593;BME280;6867;50.998;4.250;2023-05-10T01:07:06;100680.50;;;16.46;79.16
13593;BME280;6867;50.998;4.250;2023-05-10T01:09:33;100670.25;;;16.31;78.95
13593;BME280;6867;50.998;4.250;2023-05-10T01:12:00;100683.53;;;16.50;79.37
13593;BME280;6867;50.998;4.250;2023-05-10T01:14:28;100679.03;;;16.38;79.18
13593;BME280;6867;50.998;4.250;2023-05-10T01:16:56;100678.47;;;16.36;79.52
13593;BME280;6867;50.998;4.250;2023-05-10T01:19:25;100677.28;;;16.49;79.55
13593;BME280;6867;50.998;4.250;2023-05-10T01:21:59;100695.53;;;16.54;79.68
13593;BME280;6867;50.998;4.250;2023-05-10T01:25:12;100687.97;;;16.56;79.83
13593;BME280;6867;50.998;4.250;2023-05-10T01:27:56;100691.34;;;16.46;80.08
13593;BME280;6867;50.998;4.250;2023-05-10T01:30:50;100691.44;;;16.51;80.06
13593;BME280;6867;50.998;4.250;2023-05-10T01:33:26;100687.88;;;16.51;79.70
13593;BME280;6867;50.998;4.250;2023-05-10T01:35:58;100691.91;;;16.65;79.40
13593;BME280;6867;50.998;4.250;2023-05-10T01:38:35;100690.03;;;16.49;79.53
13593;BME280;6867;50.998;4.250;2023-05-10T01:41:13;100690.31;;;16.30;80.18
13593;BME280;6867;50.998;4.250;2023-05-10T01:43:58;100699.66;;;16.39;80.25
13593;BME280;6867;50.998;4.250;2023-05-10T01:46:32;100693.03;;;16.30;80.30
13593;BME280;6867;50.998;4.250;2023-05-10T01:49:07;100700.81;;;16.43;80.49
13593;BME280;6867;50.998;4.250;2023-05-10T01:51:38;100699.91;;;16.38;80.16
13593;BME280;6867;50.998;4.250;2023-05-10T01:54:07;100702.28;;;16.34;80.73
13593;BME280;6867;50.998;4.250;2023-05-10T01:56:37;100699.47;;;16.46;80.20
13593;BME280;6867;50.998;4.250;2023-05-10T01:59:13;100698.34;;;16.42;80.40
13593;BME280;6867;50.998;4.250;2023-05-10T02:01:42;100697.31;;;16.26;80.06
13593;BME280;6867;50.998;4.250;2023-05-10T02:04:15;100704.16;;;16.17;81.13
13593;BME280;6867;50.998;4.250;2023-05-10T02:06:43;100710.59;;;16.11;81.37
13593;BME280;6867;50.998;4.250;2023-05-10T02:09:12;100704.34;;;16.10;81.40
13593;BME280;6867;50.998;4.250;2023-05-10T02:11:42;100710.72;;;16.04;81.23
13593;BME280;6867;50.998;4.250;2023-05-10T02:14:11;100700.22;;;16.08;80.93
13593;BME280;6867;50.998;4.250;2023-05-10T02:16:39;100711.00;;;16.03;81.72
13593;BME280;6867;50.998;4.250;2023-05-10T02:19:07;100713.28;;;15.94;81.46
13593;BME280;6867;50.998;4.250;2023-05-10T02:21:37;100720.81;;;15.92;82.16
13593;BME280;6867;50.998;4.250;2023-05-10T02:24:06;100714.91;;;15.78;82.13
13593;BME280;6867;50.998;4.250;2023-05-10T02:26:35;100727.06;;;15.92;82.01
13593;BME280;6867;50.998;4.250;2023-05-10T02:29:03;100708.66;;;15.78;81.55
13593;BME280;6867;50.998;4.250;2023-05-10T02:31:33;100719.34;;;15.84;81.57
13593;BME280;6867;50.998;4.250;2023-05-10T02:34:00;100733.16;;;15.71;82.50
13593;BME280;6867;50.998;4.250;2023-05-10T02:36:28;100730.56;;;15.76;82.20
13593;BME280;6867;50.998;4.250;2023-05-10T02:38:59;100728.88;;;15.87;82.00
13593;BME280;6867;50.998;4.250;2023-05-10T02:41:28;100724.22;;;15.71;81.38
13593;BME280;6867;50.998;4.250;2023-05-10T02:43:59;100736.25;;;15.91;81.88
13593;BME280;6867;50.998;4.250;2023-05-10T02:46:27;100720.72;;;15.87;80.59
13593;BME280;6867;50.998;4.250;2023-05-10T02:48:54;100719.78;;;15.93;80.55
13593;BME280;6867;50.998;4.250;2023-05-10T02:51:24;100718.50;;;15.84;80.43
13593;BME280;6867;50.998;4.250;2023-05-10T02:53:53;100719.25;;;15.96;79.93
13593;BME280;6867;50.998;4.250;2023-05-10T02:56:25;100728.97;;;16.09;80.39
13593;BME280;6867;50.998;4.250;2023-05-10T02:58:54;100725.84;;;16.17;79.77
13593;BME280;6867;50.998;4.250;2023-05-10T03:01:21;100729.38;;;16.01;79.75
13593;BME280;6867;50.998;4.250;2023-05-10T03:03:48;100725.47;;;15.80;79.84
13593;BME280;6867;50.998;4.250;2023-05-10T03:06:15;100726.81;;;15.94;79.98
13593;BME280;6867;50.998;4.250;2023-05-10T03:08:42;100730.84;;;16.08;79.90
13593;BME280;6867;50.998;4.250;2023-05-10T03:11:20;100732.06;;;16.01;79.74
13593;BME280;6867;50.998;4.250;2023-05-10T03:13:59;100726.53;;;15.79;79.88
13593;BME280;6867;50.998;4.250;2023-05-10T03:16:35;100733.16;;;16.00;80.23
13593;BME280;6867;50.998;4.250;2023-05-10T03:19:12;100724.97;;;16.11;79.16
13593;BME280;6867;50.998;4.250;2023-05-10T03:21:41;100732.78;;;15.79;79.44
13593;BME280;6867;50.998;4.250;2023-05-10T03:24:12;100748.56;;;15.82;79.98
13593;BME280;6867;50.998;4.250;2023-05-10T03:26:43;100760.13;;;15.26;81.07
13593;BME280;6867;50.998;4.250;2023-05-10T03:29:12;100767.34;;;15.60;81.38
13593;BME280;6867;50.998;4.250;2023-05-10T03:31:40;100754.59;;;15.73;80.09
13593;BME280;6867;50.998;4.250;2023-05-10T03:34:07;100745.84;;;15.82;79.75
13593;BME280;6867;50.998;4.250;2023-05-10T03:36:33;100755.44;;;15.73;79.63
13593;BME280;6867;50.998;4.250;2023-05-10T03:39:00;100760.84;;;15.73;80.35
13593;BME280;6867;50.998;4.250;2023-05-10T03:41:27;100763.69;;;15.66;80.59
13593;BME280;6867;50.998;4.250;2023-05-10T03:43:54;100769.78;;;15.74;80.43
13593;BME280;6867;50.998;4.250;2023-05-10T03:46:22;100761.31;;;15.70;80.05
13593;BME280;6867;50.998;4.250;2023-05-10T03:48:48;100762.97;;;15.71;79.56
13593;BME280;6867;50.998;4.250;2023-05-10T03:51:15;100763.94;;;15.65;79.94
13593;BME280;6867;50.998;4.250;2023-05-10T03:53:42;100772.69;;;15.84;80.01
13593;BME280;6867;50.998;4.250;2023-05-10T03:56:08;100778.09;;;15.84;79.80
13593;BME280;6867;50.998;4.250;2023-05-10T03:58:35;100774.78;;;15.93;79.39
13593;BME280;6867;50.998;4.250;2023-05-10T04:01:02;100766.69;;;15.82;79.44
13593;BME280;6867;50.998;4.250;2023-05-10T04:03:30;100777.44;;;15.77;80.25
13593;BME280;6867;50.998;4.250;2023-05-10T04:06:00;100776.72;;;15.81;79.82
13593;BME280;6867;50.998;4.250;2023-05-10T04:08:27;100769.00;;;15.90;79.23
13593;BME280;6867;50.998;4.250;2023-05-10T04:10:53;100776.22;;;15.84;79.58
13593;BME280;6867;50.998;4.250;2023-05-10T04:13:20;100776.53;;;15.88;79.33
13593;BME280;6867;50.998;4.250;2023-05-10T04:15:47;100770.41;;;15.92;79.00
13593;BME280;6867;50.998;4.250;2023-05-10T04:18:14;100772.84;;;15.77;79.34
13593;BME280;6867;50.998;4.250;2023-05-10T04:20:43;100779.84;;;15.90;79.46
13593;BME280;6867;50.998;4.250;2023-05-10T04:23:10;100778.25;;;15.77;79.34
13593;BME280;6867;50.998;4.250;2023-05-10T04:25:37;100781.22;;;15.92;79.44
13593;BME280;6867;50.998;4.250;2023-05-10T04:28:04;100779.38;;;15.93;78.95
13593;BME280;6867;50.998;4.250;2023-05-10T04:30:31;100778.09;;;15.84;79.03
13593;BME280;6867;50.998;4.250;2023-05-10T04:32:58;100774.47;;;15.78;79.08
13593;BME280;6867;50.998;4.250;2023-05-10T04:35:24;100781.75;;;15.89;79.40
13593;BME280;6867;50.998;4.250;2023-05-10T04:37:53;100775.19;;;16.02;79.21
13593;BME280;6867;50.998;4.250;2023-05-10T04:40:19;100779.84;;;15.90;79.25
13593;BME280;6867;50.998;4.250;2023-05-10T04:42:46;100780.09;;;15.88;79.22
13593;BME280;6867;50.998;4.250;2023-05-10T04:45:13;100774.22;;;15.80;79.56
13593;BME280;6867;50.998;4.250;2023-05-10T04:47:40;100776.53;;;15.88;79.63
13593;BME280;6867;50.998;4.250;2023-05-10T04:50:08;100780.84;;;16.01;79.28
13593;BME280;6867;50.998;4.250;2023-05-10T04:52:34;100772.44;;;15.85;78.99
13593;BME280;6867;50.998;4.250;2023-05-10T04:55:03;100783.66;;;16.06;79.31
13593;BME280;6867;50.998;4.250;2023-05-10T04:57:30;100780.06;;;16.17;79.22
13593;BME280;6867;50.998;4.250;2023-05-10T04:59:56;100778.16;;;16.17;79.08
13593;BME280;6867;50.998;4.250;2023-05-10T05:02:23;100786.22;;;16.29;78.90
13593;BME280;6867;50.998;4.250;2023-05-10T05:04:50;100774.16;;;16.37;78.17
13593;BME280;6867;50.998;4.250;2023-05-10T05:07:17;100771.88;;;16.46;77.77
13593;BME280;6867;50.998;4.250;2023-05-10T05:09:43;100786.75;;;16.60;77.86
13593;BME280;6867;50.998;4.250;2023-05-10T05:12:12;100779.34;;;16.72;77.98
13593;BME280;6867;50.998;4.250;2023-05-10T05:14:39;100787.47;;;16.72;77.42
13593;BME280;6867;50.998;4.250;2023-05-10T05:17:06;100780.19;;;16.73;76.79
13593;BME280;6867;50.998;4.250;2023-05-10T05:19:33;100782.22;;;16.82;76.55
13593;BME280;6867;50.998;4.250;2023-05-10T05:22:01;100786.84;;;17.21;76.02
13593;BME280;6867;50.998;4.250;2023-05-10T05:24:27;100787.66;;;17.43;75.12
13593;BME280;6867;50.998;4.250;2023-05-10T05:26:54;100779.66;;;17.31;74.82
13593;BME280;6867;50.998;4.250;2023-05-10T05:29:22;100780.59;;;17.86;74.02
13593;BME280;6867;50.998;4.250;2023-05-10T05:31:48;100766.47;;;18.16;72.42
13593;BME280;6867;50.998;4.250;2023-05-10T05:34:15;100736.38;;;17.68;71.29
13593;BME280;6867;50.998;4.250;2023-05-10T05:36:42;100742.41;;;17.49;71.05
13593;BME280;6867;50.998;4.250;2023-05-10T05:39:08;100759.06;;;17.79;70.83
13593;BME280;6867;50.998;4.250;2023-05-10T05:41:35;100750.41;;;17.82;70.12
13593;BME280;6867;50.998;4.250;2023-05-10T05:44:02;100755.00;;;17.82;70.26
13593;BME280;6867;50.998;4.250;2023-05-10T05:46:30;100759.25;;;18.00;69.68
13593;BME280;6867;50.998;4.250;2023-05-10T05:48:56;100759.25;;;18.00;69.53
13593;BME280;6867;50.998;4.250;2023-05-10T05:51:23;100761.00;;;17.84;69.88
13593;BME280;6867;50.998;4.250;2023-05-10T05:53:50;100774.13;;;17.92;69.86
13593;BME280;6867;50.998;4.250;2023-05-10T05:56:17;100763.00;;;17.94;69.26
13593;BME280;6867;50.998;4.250;2023-05-10T05:58:49;100788.03;;;17.74;70.52
13593;BME280;6867;50.998;4.250;2023-05-10T06:01:16;100780.06;;;18.16;69.51
13593;BME280;6867;50.998;4.250;2023-05-10T06:03:44;100761.38;;;18.57;68.14
13593;BME280;6867;50.998;4.250;2023-05-10T06:06:10;100746.72;;;18.26;67.87
13593;BME280;6867;50.998;4.250;2023-05-10T06:08:37;100748.00;;;18.18;67.86
13593;BME280;6867;50.998;4.250;2023-05-10T06:11:04;100766.63;;;18.31;67.89
13593;BME280;6867;50.998;4.250;2023-05-10T06:13:31;100777.31;;;17.84;68.67
13593;BME280;6867;50.998;4.250;2023-05-10T06:16:00;100783.38;;;17.69;68.95
13593;BME280;6867;50.998;4.250;2023-05-10T06:18:27;100792.28;;;18.46;68.38
13593;BME280;6867;50.998;4.250;2023-05-10T06:20:55;100776.00;;;18.51;67.66
13593;BME280;6867;50.998;4.250;2023-05-10T06:23:22;100759.00;;;18.01;67.31
13593;BME280;6867;50.998;4.250;2023-05-10T06:25:48;100789.56;;;18.13;68.03
13593;BME280;6867;50.998;4.250;2023-05-10T06:28:15;100797.00;;;18.23;68.29
13593;BME280;6867;50.998;4.250;2023-05-10T06:30:42;100779.16;;;18.37;67.47
13593;BME280;6867;50.998;4.250;2023-05-10T06:33:08;100777.03;;;18.39;67.06
13593;BME280;6867;50.998;4.250;2023-05-10T06:35:35;100788.91;;;18.65;67.17
13593;BME280;6867;50.998;4.250;2023-05-10T06:38:03;100792.72;;;18.32;67.81
13593;BME280;6867;50.998;4.250;2023-05-10T06:40:30;100797.25;;;18.54;67.19
13593;BME280;6867;50.998;4.250;2023-05-10T06:42:58;100819.78;;;18.17;68.26
13593;BME280;6867;50.998;4.250;2023-05-10T06:45:24;100826.03;;;18.17;68.27
13593;BME280;6867;50.998;4.250;2023-05-10T06:47:51;100831.84;;;17.77;69.13
13593;BME280;6867;50.998;4.250;2023-05-10T06:50:18;100836.53;;;18.09;69.05
13593;BME280;6867;50.998;4.250;2023-05-10T06:52:44;100828.44;;;18.14;68.87
13593;BME280;6867;50.998;4.250;2023-05-10T06:55:12;100831.38;;;18.07;68.87
13593;BME280;6867;50.998;4.250;2023-05-10T06:57:39;100824.13;;;17.91;68.66
13593;BME280;6867;50.998;4.250;2023-05-10T07:00:07;100869.66;;;17.62;70.96
13593;BME280;6867;50.998;4.250;2023-05-10T07:02:34;100844.69;;;18.09;69.78
13593;BME280;6867;50.998;4.250;2023-05-10T07:05:01;100845.63;;;18.20;69.41
13593;BME280;6867;50.998;4.250;2023-05-10T07:07:28;100859.13;;;18.36;69.61
13593;BME280;6867;50.998;4.250;2023-05-10T07:09:55;100846.56;;;18.62;69.04
13593;BME280;6867;50.998;4.250;2023-05-10T07:12:24;100838.31;;;19.27;67.62
13593;BME280;6867;50.998;4.250;2023-05-10T07:14:51;100800.56;;;19.46;65.94
13593;BME280;6867;50.998;4.250;2023-05-10T07:17:17;100786.84;;;19.93;64.67
13593;BME280;6867;50.998;4.250;2023-05-10T07:19:44;100797.84;;;19.46;64.71
13593;BME280;6867;50.998;4.250;2023-05-10T07:22:11;100771.00;;;19.07;64.17
13593;BME280;6867;50.998;4.250;2023-05-10T07:24:38;100815.84;;;18.67;65.63
13593;BME280;6867;50.998;4.250;2023-05-10T07:27:04;100806.44;;;19.22;64.83
13593;BME280;6867;50.998;4.250;2023-05-10T07:29:33;100807.75;;;18.72;65.01
13593;BME280;6867;50.998;4.250;2023-05-10T07:31:59;100822.16;;;17.86;66.87
13593;BME280;6867;50.998;4.250;2023-05-10T07:34:26;100841.94;;;18.63;66.75
13593;BME280;6867;50.998;4.250;2023-05-10T07:36:53;100820.50;;;19.04;65.98
13593;BME280;6867;50.998;4.250;2023-05-10T07:39:20;100835.91;;;19.30;65.89
13593;BME280;6867;50.998;4.250;2023-05-10T07:41:47;100806.81;;;18.56;65.13
13593;BME280;6867;50.998;4.250;2023-05-10T07:44:13;100835.69;;;18.95;65.38
13593;BME280;6867;50.998;4.250;2023-05-10T07:46:41;100825.72;;;19.10;64.93
13593;BME280;6867;50.998;4.250;2023-05-10T07:49:08;100812.16;;;18.78;64.70
13593;BME280;6867;50.998;4.250;2023-05-10T07:51:35;100818.75;;;18.55;65.14
13593;BME280;6867;50.998;4.250;2023-05-10T07:54:02;100852.44;;;18.49;66.30
13593;BME280;6867;50.998;4.250;2023-05-10T07:56:30;100855.72;;;18.78;66.03
13593;BME280;6867;50.998;4.250;2023-05-10T07:58:58;100838.50;;;18.73;65.49
13593;BME280;6867;50.998;4.250;2023-05-10T08:01:25;100854.81;;;18.40;66.43
13593;BME280;6867;50.998;4.250;2023-05-10T08:03:53;100871.38;;;18.12;67.21
13593;BME280;6867;50.998;4.250;2023-05-10T08:06:20;100869.00;;;18.21;67.52
13593;BME280;6867;50.998;4.250;2023-05-10T08:08:48;100885.88;;;17.96;68.32
13593;BME280;6867;50.998;4.250;2023-05-10T08:11:16;100866.50;;;17.70;67.60
13593;BME280;6867;50.998;4.250;2023-05-10T08:13:43;100889.53;;;17.67;68.72
13593;BME280;6867;50.998;4.250;2023-05-10T08:16:09;100891.06;;;17.58;69.04
13593;BME280;6867;50.998;4.250;2023-05-10T08:18:36;100898.22;;;17.64;69.30
13593;BME280;6867;50.998;4.250;2023-05-10T08:21:05;100916.06;;;17.22;70.33
13593;BME280;6867;50.998;4.250;2023-05-10T08:23:32;100924.84;;;17.46;70.29
13593;BME280;6867;50.998;4.250;2023-05-10T08:25:59;100912.66;;;17.48;70.10
13593;BME280;6867;50.998;4.250;2023-05-10T08:28:25;100917.47;;;18.02;69.55
13593;BME280;6867;50.998;4.250;2023-05-10T08:30:52;100904.69;;;18.02;69.31
13593;BME280;6867;50.998;4.250;2023-05-10T08:33:19;100909.78;;;17.94;69.15
13593;BME280;6867;50.998;4.250;2023-05-10T08:35:45;100898.38;;;18.19;68.03
13593;BME280;6867;50.998;4.250;2023-05-10T08:38:13;100891.81;;;18.14;67.70
13593;BME280;6867;50.998;4.250;2023-05-10T08:40:42;100908.00;;;17.82;68.67
13593;BME280;6867;50.998;4.250;2023-05-10T08:43:10;100900.81;;;18.20;67.78
13593;BME280;6867;50.998;4.250;2023-05-10T08:45:38;100887.03;;;18.54;67.10
13593;BME280;6867;50.998;4.250;2023-05-10T08:48:06;100892.81;;;18.62;66.85
13593;BME280;6867;50.998;4.250;2023-05-10T08:50:36;100848.09;;;18.80;64.95
13593;BME280;6867;50.998;4.250;2023-05-10T08:53:04;100843.84;;;18.62;64.60
13593;BME280;6867;50.998;4.250;2023-05-10T08:55:33;100871.34;;;18.66;65.33
13593;BME280;6867;50.998;4.250;2023-05-10T08:58:02;100873.72;;;18.30;65.25
13593;BME280;6867;50.998;4.250;2023-05-10T09:00:28;100861.88;;;18.69;64.53
13593;BME280;6867;50.998;4.250;2023-05-10T09:02:56;100894.81;;;18.18;65.82
13593;BME280;6867;50.998;4.250;2023-05-10T09:05:23;100910.47;;;18.06;66.19
13593;BME280;6867;50.998;4.250;2023-05-10T09:07:50;100914.69;;;17.97;66.70
13593;BME280;6867;50.998;4.250;2023-05-10T09:10:17;100903.22;;;17.73;66.66
13593;BME280;6867;50.998;4.250;2023-05-10T09:12:46;100920.56;;;17.88;66.73
13593;BME280;6867;50.998;4.250;2023-05-10T09:15:15;100920.09;;;17.75;66.72
13593;BME280;6867;50.998;4.250;2023-05-10T09:17:44;100925.22;;;17.93;66.89
13593;BME280;6867;50.998;4.250;2023-05-10T09:20:12;100926.63;;;17.57;66.96
13593;BME280;6867;50.998;4.250;2023-05-10T09:22:39;100929.03;;;17.53;67.14
13593;BME280;6867;50.998;4.250;2023-05-10T09:25:07;100976.38;;;17.24;69.33
13593;BME280;6867;50.998;4.250;2023-05-10T09:27:35;100974.88;;;16.99;69.58
13593;BME280;6867;50.998;4.250;2023-05-10T09:30:04;100977.91;;;17.03;69.99
13593;BME280;6867;50.998;4.250;2023-05-10T09:32:39;100963.19;;;17.32;69.36
13593;BME280;6867;50.998;4.250;2023-05-10T09:35:06;100983.41;;;16.91;70.19
13593;BME280;6867;50.998;4.250;2023-05-10T09:37:33;100968.78;;;17.42;69.38
13593;BME280;6867;50.998;4.250;2023-05-10T09:40:00;100975.78;;;17.38;69.66
13593;BME280;6867;50.998;4.250;2023-05-10T09:42:30;100974.50;;;17.63;69.01
13593;BME280;6867;50.998;4.250;2023-05-10T09:45:00;100970.94;;;17.96;68.60
13593;BME280;6867;50.998;4.250;2023-05-10T09:47:28;100952.13;;;18.38;67.50
13593;BME280;6867;50.998;4.250;2023-05-10T09:49:57;100923.44;;;19.07;65.35
13593;BME280;6867;50.998;4.250;2023-05-10T09:52:28;100900.63;;;19.18;64.01
13593;BME280;6867;50.998;4.250;2023-05-10T09:54:55;100883.06;;;19.88;62.61
13593;BME280;6867;50.998;4.250;2023-05-10T09:57:23;100868.75;;;20.29;61.21
13593;BME280;6867;50.998;4.250;2023-05-10T09:59:50;100871.06;;;19.84;61.28
13593;BME280;6867;50.998;4.250;2023-05-10T10:02:19;100860.53;;;20.13;60.32
13593;BME280;6867;50.998;4.250;2023-05-10T10:04:49;100836.56;;;20.41;59.44
13593;BME280;6867;50.998;4.250;2023-05-10T10:07:22;100845.53;;;20.16;59.72
13593;BME280;6867;50.998;4.250;2023-05-10T10:09:50;100852.63;;;20.27;59.27
13593;BME280;6867;50.998;4.250;2023-05-10T10:12:17;100874.44;;;20.12;59.97
13593;BME280;6867;50.998;4.250;2023-05-10T10:14:45;100899.91;;;19.70;61.29
13593;BME280;6867;50.998;4.250;2023-05-10T10:17:12;100884.53;;;19.54;61.09
13593;BME280;6867;50.998;4.250;2023-05-10T10:19:40;100932.50;;;18.58;63.03
13593;BME280;6867;50.998;4.250;2023-05-10T10:22:09;100922.69;;;18.84;63.15
13593;BME280;6867;50.998;4.250;2023-05-10T10:24:37;100958.38;;;18.88;64.25
13593;BME280;6867;50.998;4.250;2023-05-10T10:27:11;100909.41;;;19.68;62.07
13593;BME280;6867;50.998;4.250;2023-05-10T10:29:48;100880.72;;;20.12;60.32
13593;BME280;6867;50.998;4.250;2023-05-10T10:32:23;100882.34;;;20.13;60.28
13593;BME280;6867;50.998;4.250;2023-05-10T10:34:53;100875.00;;;20.19;59.74
13593;BME280;6867;50.998;4.250;2023-05-10T10:37:22;100848.31;;;20.47;58.84
13593;BME280;6867;50.998;4.250;2023-05-10T10:39:49;100829.22;;;20.72;58.20
13593;BME280;6867;50.998;4.250;2023-05-10T10:42:43;100828.63;;;21.06;57.77
13593;BME280;6867;50.998;4.250;2023-05-10T10:45:14;100833.34;;;20.90;57.54
13593;BME280;6867;50.998;4.250;2023-05-10T10:47:40;100810.13;;;20.77;56.77
13593;BME280;6867;50.998;4.250;2023-05-10T10:50:08;100831.69;;;20.79;57.09
13593;BME280;6867;50.998;4.250;2023-05-10T10:52:40;100844.19;;;20.34;57.98
13593;BME280;6867;50.998;4.250;2023-05-10T10:55:08;100883.47;;;20.33;59.19
13593;BME280;6867;50.998;4.250;2023-05-10T10:57:48;100860.06;;;20.68;58.35
13593;BME280;6867;50.998;4.250;2023-05-10T11:00:24;100835.78;;;20.76;57.23
13593;BME280;6867;50.998;4.250;2023-05-10T11:02:53;100826.88;;;21.56;56.15
13593;BME280;6867;50.998;4.250;2023-05-10T11:05:44;100844.88;;;21.72;56.50
13593;BME280;6867;50.998;4.250;2023-05-10T11:08:18;100864.34;;;21.55;56.96
13593;BME280;6867;50.998;4.250;2023-05-10T11:10:52;100810.94;;;21.73;55.70
13593;BME280;6867;50.998;4.250;2023-05-10T11:13:30;100828.97;;;20.74;56.66
13593;BME280;6867;50.998;4.250;2023-05-10T11:15:57;100852.97;;;20.92;57.52
13593;BME280;6867;50.998;4.250;2023-05-10T11:18:25;100835.19;;;20.38;57.36
13593;BME280;6867;50.998;4.250;2023-05-10T11:20:56;100853.47;;;20.38;58.22
13593;BME280;6867;50.998;4.250;2023-05-10T11:23:29;100914.59;;;20.42;59.35
13593;BME280;6867;50.998;4.250;2023-05-10T11:25:56;100867.81;;;19.93;58.85
13593;BME280;6867;50.998;4.250;2023-05-10T11:28:24;100936.25;;;19.91;61.00
13593;BME280;6867;50.998;4.250;2023-05-10T11:30:52;100924.13;;;20.34;60.11
13593;BME280;6867;50.998;4.250;2023-05-10T11:33:19;100908.38;;;20.67;59.06
13593;BME280;6867;50.998;4.250;2023-05-10T11:35:46;100889.53;;;21.06;58.25
13593;BME280;6867;50.998;4.250;2023-05-10T11:38:13;100859.81;;;20.95;57.70
13593;BME280;6867;50.998;4.250;2023-05-10T11:40:42;100858.41;;;21.33;57.19
13593;BME280;6867;50.998;4.250;2023-05-10T11:43:10;100844.09;;;21.56;56.60
13593;BME280;6867;50.998;4.250;2023-05-10T11:45:37;100814.38;;;21.39;55.63
13593;BME280;6867;50.998;4.250;2023-05-10T11:48:04;100848.22;;;21.54;56.22
13593;BME280;6867;50.998;4.250;2023-05-10T11:50:31;100817.88;;;21.55;55.35
13593;BME280;6867;50.998;4.250;2023-05-10T11:52:58;100826.50;;;21.78;55.32
13593;BME280;6867;50.998;4.250;2023-05-10T11:55:25;100783.31;;;21.80;54.27
13593;BME280;6867;50.998;4.250;2023-05-10T11:57:53;100829.97;;;21.99;54.98
13593;BME280;6867;50.998;4.250;2023-05-10T12:00:21;100849.34;;;21.43;56.13
13593;BME280;6867;50.998;4.250;2023-05-10T12:02:48;100822.19;;;21.72;55.05
13593;BME280;6867;50.998;4.250;2023-05-10T12:05:15;100836.41;;;21.69;55.33
13593;BME280;6867;50.998;4.250;2023-05-10T12:07:42;100855.16;;;20.64;56.82
13593;BME280;6867;50.998;4.250;2023-05-10T12:10:10;100866.22;;;21.60;56.17
13593;BME280;6867;50.998;4.250;2023-05-10T12:12:40;100844.78;;;20.97;56.47
13593;BME280;6867;50.998;4.250;2023-05-10T12:15:17;100861.91;;;21.49;56.13
13593;BME280;6867;50.998;4.250;2023-05-10T12:17:45;100831.06;;;21.23;55.52
13593;BME280;6867;50.998;4.250;2023-05-10T12:20:19;100856.22;;;21.09;56.24
13593;BME280;6867;50.998;4.250;2023-05-10T12:22:48;100856.78;;;20.96;56.56
13593;BME280;6867;50.998;4.250;2023-05-10T12:25:16;100870.53;;;21.81;55.79
13593;BME280;6867;50.998;4.250;2023-05-10T12:27:48;100826.88;;;21.66;55.07
13593;BME280;6867;50.998;4.250;2023-05-10T12:30:21;100834.50;;;21.64;55.18
13593;BME280;6867;50.998;4.250;2023-05-10T12:32:48;100832.44;;;21.25;55.36
13593;BME280;6867;50.998;4.250;2023-05-10T12:35:15;100839.44;;;21.67;54.86
13593;BME280;6867;50.998;4.250;2023-05-10T12:37:42;100838.97;;;21.29;55.32
13593;BME280;6867;50.998;4.250;2023-05-10T12:40:10;100843.69;;;20.68;56.02
13593;BME280;6867;50.998;4.250;2023-05-10T12:42:38;100872.09;;;20.82;56.69
13593;BME280;6867;50.998;4.250;2023-05-10T12:45:06;100898.03;;;21.05;57.01
13593;BME280;6867;50.998;4.250;2023-05-10T12:47:35;100905.13;;;20.85;57.50
13593;BME280;6867;50.998;4.250;2023-05-10T12:50:03;100889.28;;;20.98;57.27
13593;BME280;6867;50.998;4.250;2023-05-10T12:52:31;100890.66;;;20.85;57.24
13593;BME280;6867;50.998;4.250;2023-05-10T12:54:58;100924.50;;;20.94;58.15
13593;BME280;6867;50.998;4.250;2023-05-10T12:57:25;100939.31;;;20.10;59.41
13593;BME280;6867;50.998;4.250;2023-05-10T12:59:52;100905.31;;;20.43;58.15
13593;BME280;6867;50.998;4.250;2023-05-10T13:02:19;100882.94;;;20.41;57.80
13593;BME280;6867;50.998;4.250;2023-05-10T13:04:47;100913.25;;;20.45;58.54
13593;BME280;6867;50.998;4.250;2023-05-10T13:07:14;100928.31;;;20.62;58.67